Blue Image — 3EXO5 — position and weather

sailwx.info

Track history (hours):
 
Tides and Currents Weather Stations Pressure Air Temp Water Temp Dewpoint Dewpoint Depression Visibility Wind Speed Wind Dir Waves Ship Positions

Blue Image

Last reported at 2014-Oct-24 18:09 UTC. Time now 2014-Oct-25 14:33 UTC.
Position N 40°57' E 001°12'.

Length 160 m; draft 10.2 m.

Type: Cargo ship. MMSI: 351960000.

Date/timePositionNaut miles runAvg speedWind from/ knotsBaromVisibWave heightAir tempDewpointWater temp
2014-Oct-24 18:09N 40°57' E 001°12'912.8
2014-Oct-24 17:27N 40°48' E 001°09'1112.4
2014-Oct-24 16:32N 40°37' E 001°07'1312.9
2014-Oct-24 15:30N 40°24' E 001°05'11012.2
2014-Oct-24 06:33N 38°39' E 000°25'1212.2
2014-Oct-24 05:33N 38°28' E 000°16'1611.9
2014-Oct-24 04:12N 38°15' E 000°05'811.8
2014-Oct-24 03:33N 38°09' W 000°01'1212.2
2014-Oct-24 02:33N 37°59' W 000°09'1312.2
2014-Oct-24 01:29N 37°48' W 000°19'1112.3
2014-Oct-24 00:33N 37°38' W 000°26'1312.2
2014-Oct-23 23:30N 37°29' W 000°37'1212.3
2014-Oct-23 22:33N 37°21' W 000°48'1312.4
2014-Oct-23 21:32N 37°13' W 001°00'1212.3
2014-Oct-23 20:33N 37°04' W 001°11'20112.2
2014-Oct-23 04:05N 36°01' W 005°09'714.2
2014-Oct-23 03:34N 35°60' W 005°18'16212.2
2014-Oct-22 14:16N 36°25' W 008°36'912.3
2014-Oct-22 13:33N 36°27' W 008°47'1312.5
2014-Oct-22 12:30N 36°31' W 009°02'1212.3
2014-Oct-22 11:33N 36°33' W 009°16'1312.6
2014-Oct-22 10:33N 36°42' W 009°27'1212.4
2014-Oct-22 09:33N 36°53' W 009°34'1312.8
2014-Oct-22 08:34N 37°06' W 009°38'1312.8
2014-Oct-22 07:33N 37°18' W 009°42'1212.5
2014-Oct-22 06:34N 37°30' W 009°45'1312.6
2014-Oct-22 05:33N 37°43' W 009°48'1312.6
2014-Oct-22 04:33N 37°55' W 009°52'1212.3
2014-Oct-22 03:33N 38°07' W 009°56'1212.0
2014-Oct-22 02:33N 38°19' W 009°59'1212.2
2014-Oct-22 01:33N 38°31' W 010°03'1212.1
2014-Oct-22 00:33N 38°42' W 010°06'1211.9
2014-Oct-21 23:33N 38°54' W 010°07'1211.8
2014-Oct-21 22:34N 39°06' W 010°06'1212.3
2014-Oct-21 21:33N 39°18' W 010°06'1612.2
2014-Oct-21 20:17N 39°34' W 010°07'912.1
2014-Oct-21 19:33N 39°43' W 010°08'  
2014-Oct-18 20:33N 49°40' W 000°31'1212.3
2014-Oct-18 19:33N 49°33' W 000°16'1110.8
2014-Oct-18 18:33N 49°28' W 000°01'1110.6
2014-Oct-18 17:34N 49°26' E 000°15'11 9.1
2014-Oct-18 16:23N 49°29' E 000°31'6 6.7
2014-Oct-18 15:34N 49°27' E 000°39'1 0.0
2014-Oct-16 13:33N 49°27' E 000°39'9 8.9
2014-Oct-16 12:33N 49°27' E 000°26'1111.0
2014-Oct-16 11:33N 49°26' E 000°09'10 9.5
2014-Oct-16 10:33N 49°29' W 000°05'0 0.2
2014-Oct-16 09:27N 49°29' W 000°06'0 0.0
2014-Oct-16 08:33N 49°29' W 000°06'0 0.0
2014-Oct-16 07:33N 49°29' W 000°06'0 0.0
2014-Oct-16 06:27N 49°29' W 000°06'0 0.0
2014-Oct-16 05:33N 49°29' W 000°06'0 0.0
2014-Oct-16 04:33N 49°29' W 000°06'0 0.0
2014-Oct-16 03:30N 49°29' W 000°06'0 0.0
2014-Oct-16 02:33N 49°29' W 000°06'0 0.0
2014-Oct-16 01:33N 49°29' W 000°06'0 0.0
2014-Oct-16 00:27N 49°29' W 000°06'0 0.0
2014-Oct-15 23:30N 49°29' W 000°06'0 0.1
2014-Oct-15 22:30N 49°29' W 000°06'0 0.0
2014-Oct-15 21:33N 49°29' W 000°06'0 0.0
2014-Oct-15 20:30N 49°29' W 000°06'0 0.0
2014-Oct-15 19:33N 49°29' W 000°06'0 0.0
2014-Oct-15 18:33N 49°29' W 000°06'0 0.0
2014-Oct-15 17:24N 49°29' W 000°06'0 0.0
2014-Oct-15 16:33N 49°29' W 000°06'0 0.0
2014-Oct-15 15:33N 49°29' W 000°06'0 0.0
2014-Oct-15 14:33N 49°29' W 000°06'6 6.2
2014-Oct-15 13:33N 49°33' W 000°12'5711.5
2014-Oct-15 08:33N 50°30' E 000°04'1414.4
2014-Oct-15 07:33N 50°35' E 000°25'1414.0
2014-Oct-15 06:33N 50°42' E 000°44'2512.8
2014-Oct-15 04:34N 50°59' E 001°15'1111.2
2014-Oct-15 03:33N 51°05' E 001°29'1212.1
2014-Oct-15 02:33N 51°13' E 001°45'1413.6
2014-Oct-15 01:33N 51°24' E 001°56'1514.5
2014-Oct-15 00:33N 51°36' E 002°10'1514.8
2014-Oct-14 23:33N 51°47' E 002°25'3913.2
2014-Oct-14 20:33N 52°26' E 002°18'1312.4
2014-Oct-14 19:33N 52°39' E 002°14'1211.8
2014-Oct-14 18:29N 52°51' E 002°10'  
Track history (hours):
 
Tides and Currents Weather Stations Pressure Air Temp Water Temp Dewpoint Dewpoint Depression Visibility Wind Speed Wind Dir Waves Ship Positions

Blue Image

Last reported at 2014-Oct-24 18:09 UTC. Time now 2014-Oct-25 14:33 UTC.
Position N 40°57' E 001°12'.

Length 160 m; draft 10.2 m.

Type: Cargo ship. MMSI: 351960000.

Date/timePositionNaut miles runAvg speedWind from/ knotsBaromVisibWave heightAir tempDewpointWater temp
2014-Oct-24 18:09N 40°57' E 001°12'912.8
2014-Oct-24 17:27N 40°48' E 001°09'1112.4
2014-Oct-24 16:32N 40°37' E 001°07'1312.9
2014-Oct-24 15:30N 40°24' E 001°05'11012.2
2014-Oct-24 06:33N 38°39' E 000°25'1212.2
2014-Oct-24 05:33N 38°28' E 000°16'1611.9
2014-Oct-24 04:12N 38°15' E 000°05'811.8
2014-Oct-24 03:33N 38°09' W 000°01'1212.2
2014-Oct-24 02:33N 37°59' W 000°09'1312.2
2014-Oct-24 01:29N 37°48' W 000°19'1112.3
2014-Oct-24 00:33N 37°38' W 000°26'1312.2
2014-Oct-23 23:30N 37°29' W 000°37'1212.3
2014-Oct-23 22:33N 37°21' W 000°48'1312.4
2014-Oct-23 21:32N 37°13' W 001°00'1212.3
2014-Oct-23 20:33N 37°04' W 001°11'20112.2
2014-Oct-23 04:05N 36°01' W 005°09'714.2
2014-Oct-23 03:34N 35°60' W 005°18'16212.2
2014-Oct-22 14:16N 36°25' W 008°36'912.3
2014-Oct-22 13:33N 36°27' W 008°47'1312.5
2014-Oct-22 12:30N 36°31' W 009°02'1212.3
2014-Oct-22 11:33N 36°33' W 009°16'1312.6
2014-Oct-22 10:33N 36°42' W 009°27'1212.4
2014-Oct-22 09:33N 36°53' W 009°34'1312.8
2014-Oct-22 08:34N 37°06' W 009°38'1312.8
2014-Oct-22 07:33N 37°18' W 009°42'1212.5
2014-Oct-22 06:34N 37°30' W 009°45'1312.6
2014-Oct-22 05:33N 37°43' W 009°48'1312.6
2014-Oct-22 04:33N 37°55' W 009°52'1212.3
2014-Oct-22 03:33N 38°07' W 009°56'1212.0
2014-Oct-22 02:33N 38°19' W 009°59'1212.2
2014-Oct-22 01:33N 38°31' W 010°03'1212.1
2014-Oct-22 00:33N 38°42' W 010°06'1211.9
2014-Oct-21 23:33N 38°54' W 010°07'1211.8
2014-Oct-21 22:34N 39°06' W 010°06'1212.3
2014-Oct-21 21:33N 39°18' W 010°06'1612.2
2014-Oct-21 20:17N 39°34' W 010°07'912.1
2014-Oct-21 19:33N 39°43' W 010°08'  
2014-Oct-18 20:33N 49°40' W 000°31'1212.3
2014-Oct-18 19:33N 49°33' W 000°16'1110.8
2014-Oct-18 18:33N 49°28' W 000°01'1110.6
2014-Oct-18 17:34N 49°26' E 000°15'11 9.1
2014-Oct-18 16:23N 49°29' E 000°31'6 6.7
2014-Oct-18 15:34N 49°27' E 000°39'1 0.0
2014-Oct-16 13:33N 49°27' E 000°39'9 8.9
2014-Oct-16 12:33N 49°27' E 000°26'1111.0
2014-Oct-16 11:33N 49°26' E 000°09'10 9.5
2014-Oct-16 10:33N 49°29' W 000°05'0 0.2
2014-Oct-16 09:27N 49°29' W 000°06'0 0.0
2014-Oct-16 08:33N 49°29' W 000°06'0 0.0
2014-Oct-16 07:33N 49°29' W 000°06'0 0.0
2014-Oct-16 06:27N 49°29' W 000°06'0 0.0
2014-Oct-16 05:33N 49°29' W 000°06'0 0.0
2014-Oct-16 04:33N 49°29' W 000°06'0 0.0
2014-Oct-16 03:30N 49°29' W 000°06'0 0.0
2014-Oct-16 02:33N 49°29' W 000°06'0 0.0
2014-Oct-16 01:33N 49°29' W 000°06'0 0.0
2014-Oct-16 00:27N 49°29' W 000°06'0 0.0
2014-Oct-15 23:30N 49°29' W 000°06'0 0.1
2014-Oct-15 22:30N 49°29' W 000°06'0 0.0
2014-Oct-15 21:33N 49°29' W 000°06'0 0.0
2014-Oct-15 20:30N 49°29' W 000°06'0 0.0
2014-Oct-15 19:33N 49°29' W 000°06'0 0.0
2014-Oct-15 18:33N 49°29' W 000°06'0 0.0
2014-Oct-15 17:24N 49°29' W 000°06'0 0.0
2014-Oct-15 16:33N 49°29' W 000°06'0 0.0
2014-Oct-15 15:33N 49°29' W 000°06'0 0.0
2014-Oct-15 14:33N 49°29' W 000°06'6 6.2
2014-Oct-15 13:33N 49°33' W 000°12'5711.5
2014-Oct-15 08:33N 50°30' E 000°04'1414.4
2014-Oct-15 07:33N 50°35' E 000°25'1414.0
2014-Oct-15 06:33N 50°42' E 000°44'2512.8
2014-Oct-15 04:34N 50°59' E 001°15'1111.2
2014-Oct-15 03:33N 51°05' E 001°29'1212.1
2014-Oct-15 02:33N 51°13' E 001°45'1413.6
2014-Oct-15 01:33N 51°24' E 001°56'1514.5
2014-Oct-15 00:33N 51°36' E 002°10'1514.8
2014-Oct-14 23:33N 51°47' E 002°25'3913.2
2014-Oct-14 20:33N 52°26' E 002°18'1312.4
2014-Oct-14 19:33N 52°39' E 002°14'1211.8
2014-Oct-14 18:29N 52°51' E 002°10'  

Dump ship's entire track history